Time;durP1;ratioP1;P1;durP2;ratioP2;P2;SDS_P1;SDS_P2;PMS_P1;PMS_P2;Temp;Humidity;BMP_temperature;BMP_pressure;BME280_temperature;BME280_humidity;BME280_pressure;Samples;Min_cycle;Max_cycle;Signal;HPM_P1;HPM_P2
2024/04/10 00:02:44;;;;;;;8.48;3.88;;;;;;;;;;11260707;26;20033;-58
2024/04/10 00:07:46;;;;;;;8.25;3.70;;;;;;;;;;11253068;26;20337;-57
2024/04/10 00:12:47;;;;;;;7.35;4.20;;;;;;;;;;11233902;26;20542;-58
2024/04/10 00:17:48;;;;;;;5.57;3.97;;;;;;;;;;11264928;26;20031;-58
2024/04/10 00:22:49;;;;;;;8.50;4.15;;;;;;;;;;11224992;26;20037;-57
2024/04/10 00:27:50;;;;;;;10.60;4.72;;;;;;;;;;11235569;26;20068;-58
2024/04/10 00:32:51;;;;;;;10.90;3.92;;;;;;;;;;11206819;26;20003;-57
2024/04/10 00:37:52;;;;;;;8.27;4.47;;;;;;;;;;11216575;26;19995;-58
2024/04/10 00:42:54;;;;;;;6.47;4.00;;;;;;;;;;11263200;26;20420;-57
2024/04/10 00:47:55;;;;;;;5.50;3.50;;;;;;;;;;11204005;26;19998;-58
2024/04/10 00:52:56;;;;;;;6.80;3.45;;;;;;;;;;11212177;26;20043;-58
2024/04/10 00:57:58;;;;;;;7.90;3.75;;;;;;;;;;11264330;26;20030;-58
2024/04/10 01:02:59;;;;;;;7.60;3.53;;;;;;;;;;11221163;26;20007;-58
2024/04/10 01:08:02;;;;;;;6.07;3.72;;;;;;;;;;11219712;26;19999;-58
2024/04/10 01:13:03;;;;;;;6.93;4.15;;;;;;;;;;11238646;26;20002;-57
2024/04/10 01:18:04;;;;;;;8.05;3.55;;;;;;;;;;11248318;26;20015;-58
2024/04/10 01:23:06;;;;;;;5.20;3.72;;;;;;;;;;11189586;26;19999;-58
2024/04/10 01:28:08;;;;;;;6.18;3.65;;;;;;;;;;11170935;26;20421;-57
2024/04/10 01:33:09;;;;;;;6.00;3.45;;;;;;;;;;11169947;26;20462;-58
2024/04/10 01:38:10;;;;;;;6.05;3.28;;;;;;;;;;11158498;26;20000;-58
2024/04/10 01:43:11;;;;;;;6.63;3.50;;;;;;;;;;11158507;26;20008;-57
2024/04/10 01:48:12;;;;;;;7.00;3.45;;;;;;;;;;11161261;26;20012;-59
2024/04/10 01:53:13;;;;;;;4.85;3.17;;;;;;;;;;11165254;26;19992;-58
2024/04/10 01:58:14;;;;;;;4.82;3.33;;;;;;;;;;11163073;26;20406;-59
2024/04/10 02:03:16;;;;;;;6.75;3.42;;;;;;;;;;11164347;26;20004;-58
2024/04/10 02:08:17;;;;;;;5.65;3.50;;;;;;;;;;11156595;26;20004;-58
2024/04/10 02:13:18;;;;;;;4.25;3.08;;;;;;;;;;11123770;26;20032;-58
2024/04/10 02:18:19;;;;;;;5.63;3.20;;;;;;;;;;11136471;26;20035;-58
2024/04/10 02:23:20;;;;;;;5.22;3.30;;;;;;;;;;11239685;26;20321;-59
2024/04/10 02:28:21;;;;;;;7.68;3.22;;;;;;;;;;11215232;26;20010;-58
2024/04/10 02:33:22;;;;;;;8.05;3.17;;;;;;;;;;11223689;26;20418;-58
2024/04/10 02:38:23;;;;;;;5.22;3.30;;;;;;;;;;11264262;26;20075;-59
2024/04/10 02:43:24;;;;;;;3.53;2.90;;;;;;;;;;11246204;26;19995;-59
2024/04/10 02:48:27;;;;;;;3.75;2.85;;;;;;;;;;11218548;26;20419;-58
2024/04/10 02:53:28;;;;;;;3.42;2.88;;;;;;;;;;11223042;26;20072;-58
2024/04/10 02:58:29;;;;;;;2.88;2.55;;;;;;;;;;11236355;26;20033;-59
2024/04/10 03:03:30;;;;;;;4.47;3.00;;;;;;;;;;11213451;26;20181;-58
2024/04/10 03:08:33;;;;;;;4.82;3.03;;;;;;;;;;11220004;26;19999;-58
2024/04/10 03:13:35;;;;;;;3.90;2.92;;;;;;;;;;11248720;26;20338;-58
2024/04/10 03:18:36;;;;;;;3.90;2.70;;;;;;;;;;11260018;26;20011;-58
2024/04/10 03:23:37;;;;;;;5.32;2.95;;;;;;;;;;11241814;26;20008;-58
2024/04/10 03:28:40;;;;;;;6.05;3.28;;;;;;;;;;11267506;26;20035;-58
2024/04/10 03:33:42;;;;;;;4.35;2.90;;;;;;;;;;11236985;26;20000;-57
2024/04/10 03:38:43;;;;;;;3.15;2.45;;;;;;;;;;11215458;26;20008;-57
2024/04/10 03:43:44;;;;;;;3.47;2.70;;;;;;;;;;11225384;26;20007;-58
2024/04/10 03:48:45;;;;;;;3.70;2.85;;;;;;;;;;11263793;26;20071;-58
2024/04/10 03:53:47;;;;;;;4.13;2.90;;;;;;;;;;11234694;26;20010;-58
2024/04/10 03:58:49;;;;;;;4.35;2.83;;;;;;;;;;11230613;26;20014;-58
2024/04/10 04:03:50;;;;;;;3.15;2.33;;;;;;;;;;11227056;26;20077;-58
2024/04/10 04:08:51;;;;;;;3.47;2.55;;;;;;;;;;11252815;26;19999;-58
2024/04/10 04:13:53;;;;;;;3.55;2.85;;;;;;;;;;11247006;26;20004;-59
2024/04/10 04:18:54;;;;;;;3.00;2.58;;;;;;;;;;11245515;26;20014;-59
2024/04/10 04:23:55;;;;;;;4.57;2.72;;;;;;;;;;11247009;26;20011;-58
2024/04/10 04:28:56;;;;;;;2.60;2.30;;;;;;;;;;11228065;26;19995;-57
2024/04/10 04:33:59;;;;;;;3.60;2.42;;;;;;;;;;11235983;26;19998;-57
2024/04/10 04:39:00;;;;;;;3.00;2.30;;;;;;;;;;11242175;26;19999;-59
2024/04/10 04:44:01;;;;;;;4.55;3.00;;;;;;;;;;11220774;26;20066;-58
2024/04/10 04:49:02;;;;;;;3.67;2.83;;;;;;;;;;11242060;26;20027;-58
2024/04/10 04:54:04;;;;;;;3.40;2.42;;;;;;;;;;11239536;26;20079;-59
2024/04/10 04:59:05;;;;;;;2.75;2.20;;;;;;;;;;11244846;26;19995;-58
2024/04/10 05:09:26;;;;;;;7.05;2.40;;;;;;;;;;11231837;26;20011;-58
2024/04/10 05:14:27;;;;;;;2.63;2.42;;;;;;;;;;11248096;26;20040;-57
2024/04/10 05:19:28;;;;;;;4.95;2.88;;;;;;;;;;11254181;26;20027;-58
2024/04/10 05:24:29;;;;;;;4.70;2.63;;;;;;;;;;11236584;26;19999;-57
2024/04/10 05:29:30;;;;;;;2.45;2.22;;;;;;;;;;11260345;26;20548;-57
2024/04/10 05:34:31;;;;;;;6.85;2.63;;;;;;;;;;11233704;26;20002;-58
2024/04/10 05:39:33;;;;;;;6.50;2.80;;;;;;;;;;11254293;26;20376;-57
2024/04/10 05:44:34;;;;;;;2.95;2.40;;;;;;;;;;11202825;26;20098;-57
2024/04/10 05:49:35;;;;;;;3.83;2.45;;;;;;;;;;11231695;26;19995;-58
2024/04/10 05:54:37;;;;;;;3.30;2.40;;;;;;;;;;11246249;26;20080;-58
2024/04/10 05:59:38;;;;;;;4.55;2.80;;;;;;;;;;11229647;26;20440;-57
2024/04/10 06:04:39;;;;;;;2.58;2.33;;;;;;;;;;11221770;26;20080;-58
2024/04/10 06:09:40;;;;;;;3.28;2.20;;;;;;;;;;11222320;26;20027;-58
2024/04/10 06:14:41;;;;;;;6.03;2.97;;;;;;;;;;11249290;26;20079;-59
2024/04/10 06:19:42;;;;;;;11.18;2.58;;;;;;;;;;11244386;26;19999;-58
2024/04/10 06:24:45;;;;;;;15.20;3.17;;;;;;;;;;11236017;26;20046;-58
2024/04/10 06:29:47;;;;;;;5.47;2.80;;;;;;;;;;11228019;26;20000;-59
2024/04/10 06:34:48;;;;;;;6.53;2.90;;;;;;;;;;11215784;26;19999;-58
2024/04/10 06:39:51;;;;;;;7.40;3.13;;;;;;;;;;11235120;26;20080;-58
2024/04/10 06:44:52;;;;;;;7.35;2.67;;;;;;;;;;11226876;26;19995;-58
2024/04/10 06:49:53;;;;;;;6.00;2.83;;;;;;;;;;11211822;26;20094;-58
2024/04/10 06:54:54;;;;;;;4.18;2.58;;;;;;;;;;11222937;26;20022;-58
2024/04/10 06:59:55;;;;;;;6.35;2.70;;;;;;;;;;11228445;26;19995;-59
2024/04/10 07:04:57;;;;;;;11.38;2.65;;;;;;;;;;11243470;26;20014;-59
2024/04/10 07:09:58;;;;;;;5.15;2.60;;;;;;;;;;11229232;26;20591;-59
2024/04/10 07:14:59;;;;;;;7.03;2.60;;;;;;;;;;11245864;26;20079;-59
2024/04/10 07:20:00;;;;;;;5.70;3.22;;;;;;;;;;11263297;26;20393;-58
2024/04/10 07:25:03;;;;;;;9.63;3.20;;;;;;;;;;11241537;26;20341;-59
2024/04/10 07:30:06;;;;;;;4.43;2.60;;;;;;;;;;11239037;26;20077;-59
2024/04/10 07:35:07;;;;;;;10.30;2.75;;;;;;;;;;11251127;26;19999;-58
2024/04/10 07:40:15;;;;;;;5.63;2.47;;;;;;;;;;11268750;26;20144;-59
2024/04/10 07:45:16;;;;;;;10.70;2.50;;;;;;;;;;11244839;26;20013;-58
2024/04/10 07:50:18;;;;;;;9.80;2.58;;;;;;;;;;11263051;26;20497;-59
2024/04/10 07:55:19;;;;;;;3.53;2.45;;;;;;;;;;11244094;26;19999;-58
2024/04/10 08:00:20;;;;;;;4.90;2.92;;;;;;;;;;11251873;26;20328;-59
2024/04/10 08:05:22;;;;;;;7.10;2.63;;;;;;;;;;11213866;26;20003;-59
2024/04/10 08:10:23;;;;;;;3.25;2.30;;;;;;;;;;11242393;26;20127;-59
2024/04/10 08:15:24;;;;;;;13.85;2.78;;;;;;;;;;11263391;26;20068;-59
2024/04/10 08:20:26;;;;;;;6.60;2.78;;;;;;;;;;11247097;26;19999;-58
2024/04/10 08:25:31;;;;;;;7.80;2.83;;;;;;;;;;11221395;26;19999;-58
2024/04/10 08:30:32;;;;;;;11.82;2.90;;;;;;;;;;11226579;26;20027;-58
2024/04/10 08:35:34;;;;;;;3.22;2.90;;;;;;;;;;11243342;26;20058;-58
2024/04/10 08:40:37;;;;;;;8.70;2.53;;;;;;;;;;11226581;26;20386;-58
2024/04/10 08:45:38;;;;;;;6.50;2.80;;;;;;;;;;11231389;26;20009;-58
2024/04/10 08:50:41;;;;;;;5.65;2.85;;;;;;;;;;11238736;26;20070;-58
2024/04/10 08:55:43;;;;;;;7.85;2.88;;;;;;;;;;11229749;26;20003;-58
2024/04/10 09:00:45;;;;;;;3.13;2.50;;;;;;;;;;11217460;26;20015;-58
2024/04/10 09:05:46;;;;;;;7.53;2.92;;;;;;;;;;11217356;26;20178;-59
2024/04/10 09:10:55;;;;;;;4.10;2.63;;;;;;;;;;11238129;26;20020;-58
2024/04/10 09:15:57;;;;;;;;;;;;;;;;;;11248964;26;20493;-59
2024/04/10 09:21:09;;;;;;;7.47;3.15;;;;;;;;;;11239660;26;19924;-59
2024/04/10 09:26:16;;;;;;;6.65;2.53;;;;;;;;;;11238768;26;19999;-58
2024/04/10 09:31:21;;;;;;;4.97;2.37;;;;;;;;;;11265126;26;20074;-58
2024/04/10 09:36:24;;;;;;;8.07;2.65;;;;;;;;;;11240111;26;20010;-58
2024/04/10 09:41:28;;;;;;;6.45;2.75;;;;;;;;;;11256317;26;20075;-58
2024/04/10 09:46:37;;;;;;;7.55;3.08;;;;;;;;;;11218449;26;20003;-58
2024/04/10 09:51:40;;;;;;;5.97;2.47;;;;;;;;;;11213175;26;19999;-59
2024/04/10 09:56:42;;;;;;;4.63;2.60;;;;;;;;;;11240977;26;20035;-59
2024/04/10 10:01:43;;;;;;;4.10;2.58;;;;;;;;;;11234048;26;20056;-59
2024/04/10 10:06:44;;;;;;;8.10;2.53;;;;;;;;;;11246370;26;19999;-58
2024/04/10 10:11:57;;;;;;;5.55;2.47;;;;;;;;;;11226347;26;20003;-58
2024/04/10 10:17:07;;;;;;;4.82;2.53;;;;;;;;;;11224845;26;20451;-59
2024/04/10 10:22:09;;;;;;;3.42;2.33;;;;;;;;;;11265469;26;20003;-58
2024/04/10 10:27:10;;;;;;;3.40;2.40;;;;;;;;;;11193301;26;20003;-58
2024/04/10 10:32:11;;;;;;;4.68;2.65;;;;;;;;;;11228334;26;20075;-58
2024/04/10 10:37:12;;;;;;;4.65;2.88;;;;;;;;;;11228208;26;20430;-58
2024/04/10 10:42:13;;;;;;;7.30;2.72;;;;;;;;;;11223282;26;20004;-59
2024/04/10 10:47:15;;;;;;;4.80;2.17;;;;;;;;;;11229947;26;20071;-59
2024/04/10 10:52:16;;;;;;;4.28;2.80;;;;;;;;;;11249080;26;19998;-58
2024/04/10 10:57:17;;;;;;;5.55;2.65;;;;;;;;;;11254377;26;20003;-59
2024/04/10 11:02:20;;;;;;;6.40;3.10;;;;;;;;;;11263895;26;20093;-58
2024/04/10 11:07:23;;;;;;;2.97;2.40;;;;;;;;;;11240478;26;19998;-58
2024/04/10 11:12:24;;;;;;;2.72;2.45;;;;;;;;;;11232005;26;20009;-59
2024/04/10 11:17:29;;;;;;;6.05;2.70;;;;;;;;;;11247605;26;20038;-59
2024/04/10 11:22:30;;;;;;;4.20;2.33;;;;;;;;;;11241793;26;20015;-59
2024/04/10 11:27:33;;;;;;;5.82;2.45;;;;;;;;;;11229688;26;20011;-59
2024/04/10 11:32:34;;;;;;;4.97;2.47;;;;;;;;;;11262723;26;20007;-58
2024/04/10 11:37:35;;;;;;;9.23;2.72;;;;;;;;;;11259356;26;20044;-59
2024/04/10 11:42:36;;;;;;;3.10;2.38;;;;;;;;;;11249572;26;20064;-59
2024/04/10 11:47:38;;;;;;;4.38;2.45;;;;;;;;;;11217217;26;20003;-59
2024/04/10 11:52:40;;;;;;;6.38;2.20;;;;;;;;;;11261617;26;20030;-59
2024/04/10 11:57:41;;;;;;;3.35;1.85;;;;;;;;;;11258260;26;20033;-59
2024/04/10 12:02:43;;;;;;;5.00;2.85;;;;;;;;;;11241504;26;20007;-58
2024/04/10 12:07:46;;;;;;;8.13;2.67;;;;;;;;;;11232892;26;20003;-58
2024/04/10 12:12:50;;;;;;;4.18;2.88;;;;;;;;;;11245885;26;20291;-59
2024/04/10 12:17:52;;;;;;;5.88;2.17;;;;;;;;;;11251829;26;20010;-59
2024/04/10 12:22:53;;;;;;;7.47;1.90;;;;;;;;;;11248792;26;19998;-59
2024/04/10 12:27:54;;;;;;;6.80;2.03;;;;;;;;;;11230111;26;20356;-59
2024/04/10 12:32:55;;;;;;;4.93;2.22;;;;;;;;;;11244186;26;19999;-59
2024/04/10 12:38:03;;;;;;;2.17;1.83;;;;;;;;;;11190619;26;20027;-59
2024/04/10 12:43:06;;;;;;;8.07;2.05;;;;;;;;;;11249200;26;19998;-59
2024/04/10 12:48:08;;;;;;;3.22;2.05;;;;;;;;;;11233908;26;20046;-59
2024/04/10 12:53:09;;;;;;;8.18;2.22;;;;;;;;;;11231508;26;20087;-59
2024/04/10 12:58:11;;;;;;;3.47;2.15;;;;;;;;;;11258313;26;19999;-59
2024/04/10 13:03:16;;;;;;;3.05;2.10;;;;;;;;;;11237903;26;20024;-59
2024/04/10 13:08:18;;;;;;;7.97;2.65;;;;;;;;;;11240548;26;20460;-59
2024/04/10 13:13:19;;;;;;;5.80;2.10;;;;;;;;;;11247203;26;20010;-60
2024/04/10 13:18:20;;;;;;;3.17;2.00;;;;;;;;;;11229415;26;20003;-60
2024/04/10 13:23:22;;;;;;;2.85;2.00;;;;;;;;;;11236906;26;20066;-59
2024/04/10 13:28:23;;;;;;;3.38;1.98;;;;;;;;;;11223425;26;20013;-58
2024/04/10 13:33:24;;;;;;;4.88;2.40;;;;;;;;;;11252810;26;19999;-59
2024/04/10 13:38:25;;;;;;;5.60;2.13;;;;;;;;;;11234469;26;20004;-59
2024/04/10 13:43:26;;;;;;;3.30;2.10;;;;;;;;;;11231879;26;19999;-59
2024/04/10 13:48:27;;;;;;;4.28;2.25;;;;;;;;;;11244209;26;20002;-59
2024/04/10 13:53:29;;;;;;;5.13;2.10;;;;;;;;;;11254027;26;19994;-59
2024/04/10 13:58:32;;;;;;;3.25;2.17;;;;;;;;;;11253955;26;20014;-59
2024/04/10 14:03:33;;;;;;;4.03;2.17;;;;;;;;;;11216134;26;20008;-59
2024/04/10 14:08:35;;;;;;;6.35;2.20;;;;;;;;;;11240086;26;20514;-59
2024/04/10 14:13:38;;;;;;;5.05;1.90;;;;;;;;;;11189617;21;20467;-57
2024/04/10 14:18:41;;;;;;;3.55;1.80;;;;;;;;;;11064210;26;20448;-60
2024/04/10 14:23:44;;;;;;;4.38;2.08;;;;;;;;;;11120250;26;20000;-57
2024/04/10 14:30:33;;;;;;;9.30;2.00;;;;;;;;;;11450784;25;21268;-60
2024/04/10 14:35:35;;;;;;;6.07;2.20;;;;;;;;;;11382591;26;20461;-54
2024/04/10 14:40:38;;;;;;;3.63;2.20;;;;;;;;;;11372647;25;20017;-59
2024/04/10 14:45:40;;;;;;;5.53;1.88;;;;;;;;;;11365705;25;20009;-58
2024/04/10 14:50:52;;;;;;;12.25;2.58;;;;;;;;;;11342673;25;20334;-59
2024/04/10 14:56:13;;;;;;;4.90;2.10;;;;;;;;;;11378292;25;20070;-58
2024/04/10 15:01:20;;;;;;;3.75;1.80;;;;;;;;;;11375701;25;19997;-55
2024/04/10 15:06:22;;;;;;;9.98;2.58;;;;;;;;;;11382034;25;20736;-58
2024/04/10 15:11:26;;;;;;;5.18;2.05;;;;;;;;;;11341523;25;20008;-58
2024/04/10 15:16:28;;;;;;;6.57;2.20;;;;;;;;;;11345919;26;20111;-60
2024/04/10 15:21:30;;;;;;;2.15;1.88;;;;;;;;;;11344191;25;19998;-57
2024/04/10 15:26:32;;;;;;;6.20;1.85;;;;;;;;;;11371635;25;20385;-59
2024/04/10 15:31:34;;;;;;;5.60;2.10;;;;;;;;;;11430858;25;20005;-54
2024/04/10 15:36:37;;;;;;;6.80;1.83;;;;;;;;;;11434054;25;20001;-53
2024/04/10 15:41:42;;;;;;;9.07;2.20;;;;;;;;;;11410444;25;20012;-54
2024/04/10 15:46:44;;;;;;;6.30;1.60;;;;;;;;;;11426635;26;20012;-54
2024/04/10 15:51:46;;;;;;;12.52;1.98;;;;;;;;;;11392634;25;20185;-50
2024/04/10 15:56:48;;;;;;;4.00;1.90;;;;;;;;;;11414236;25;20009;-50
2024/04/10 16:01:51;;;;;;;4.00;1.83;;;;;;;;;;11416259;26;20450;-51
2024/04/10 16:06:53;;;;;;;4.95;2.15;;;;;;;;;;11401082;26;20325;-51
2024/04/10 16:11:55;;;;;;;6.57;1.98;;;;;;;;;;11390151;25;20078;-49
2024/04/10 16:16:57;;;;;;;8.70;2.03;;;;;;;;;;11378296;26;20002;-51
2024/04/10 16:22:00;;;;;;;2.97;1.50;;;;;;;;;;11380821;25;20013;-49
2024/04/10 16:27:03;;;;;;;5.78;1.83;;;;;;;;;;11384253;26;19997;-49
2024/04/10 16:32:05;;;;;;;2.67;1.85;;;;;;;;;;11395454;25;20002;-55
2024/04/10 16:37:08;;;;;;;4.18;1.83;;;;;;;;;;11401294;25;20001;-50
2024/04/10 16:42:10;;;;;;;10.45;1.70;;;;;;;;;;11357991;26;20009;-51
2024/04/10 16:47:13;;;;;;;4.68;2.10;;;;;;;;;;11400155;26;20017;-50
2024/04/10 16:52:16;;;;;;;6.47;1.80;;;;;;;;;;11422217;25;20001;-49
2024/04/10 16:57:19;;;;;;;4.35;1.70;;;;;;;;;;11416816;25;19998;-50
2024/04/10 17:02:21;;;;;;;5.47;1.75;;;;;;;;;;11430658;25;20001;-51
2024/04/10 17:07:23;;;;;;;10.07;2.05;;;;;;;;;;11407447;26;20012;-50
2024/04/10 17:12:29;;;;;;;3.85;1.45;;;;;;;;;;11399836;25;20002;-50
2024/04/10 17:21:45;;;;;;;3.20;1.98;;;;;;;;;;11414168;26;20009;-50
2024/04/10 17:22:53;;;;;;;2.10;1.42;;;;;;;;;;11402282;26;20012;-49
2024/04/10 17:27:55;;;;;;;1.98;1.63;;;;;;;;;;11390980;26;20001;-52
2024/04/10 17:32:58;;;;;;;5.70;1.77;;;;;;;;;;11387094;25;20018;-49
2024/04/10 17:38:00;;;;;;;2.10;1.85;;;;;;;;;;11335858;26;20001;-52
2024/04/10 17:43:02;;;;;;;5.55;1.63;;;;;;;;;;11388196;26;20001;-46
2024/04/10 17:48:05;;;;;;;6.85;1.92;;;;;;;;;;11395956;26;20017;-55
2024/04/10 17:53:07;;;;;;;1.80;1.50;;;;;;;;;;11405329;25;19997;-51
2024/04/10 17:58:10;;;;;;;2.97;1.60;;;;;;;;;;11381598;25;20370;-50
2024/04/10 18:03:12;;;;;;;3.45;1.58;;;;;;;;;;11410704;26;20007;-47
2024/04/10 18:08:14;;;;;;;6.65;1.50;;;;;;;;;;11392975;26;20021;-49
2024/04/10 18:13:16;;;;;;;4.25;1.60;;;;;;;;;;11399254;25;19994;-51
2024/04/10 18:18:19;;;;;;;1.63;1.52;;;;;;;;;;11411104;25;20017;-53
2024/04/10 18:23:21;;;;;;;3.10;1.67;;;;;;;;;;11385564;26;20412;-50
2024/04/10 18:28:23;;;;;;;1.92;1.70;;;;;;;;;;11384239;26;20005;-51
2024/04/10 18:33:26;;;;;;;2.97;1.92;;;;;;;;;;11369693;25;20013;-49
2024/04/10 18:38:29;;;;;;;3.00;1.80;;;;;;;;;;11398404;26;19995;-48
2024/04/10 18:43:32;;;;;;;2.40;1.40;;;;;;;;;;11370762;26;20010;-51
2024/04/10 18:48:36;;;;;;;1.90;1.60;;;;;;;;;;11407289;26;20398;-51
2024/04/10 18:53:37;;;;;;;3.35;2.03;;;;;;;;;;11386274;25;20296;-51
2024/04/10 18:58:42;;;;;;;2.35;1.58;;;;;;;;;;11385046;25;20002;-56
2024/04/10 19:03:43;;;;;;;5.18;1.63;;;;;;;;;;11417754;25;19998;-52
2024/04/10 19:08:44;;;;;;;4.95;1.75;;;;;;;;;;11385167;26;20033;-53
2024/04/10 19:13:45;;;;;;;2.47;1.60;;;;;;;;;;11393845;25;20202;-55
2024/04/10 19:18:46;;;;;;;2.78;1.63;;;;;;;;;;11381072;25;20053;-56
2024/04/10 19:23:47;;;;;;;5.15;1.83;;;;;;;;;;11383663;25;20009;-49
2024/04/10 19:28:49;;;;;;;9.73;2.00;;;;;;;;;;11423380;25;20105;-51
2024/04/10 19:33:50;;;;;;;2.80;1.60;;;;;;;;;;11441245;25;20004;-52
2024/04/10 19:38:51;;;;;;;2.15;1.67;;;;;;;;;;11392648;25;20351;-52
2024/04/10 19:43:52;;;;;;;3.55;1.90;;;;;;;;;;11443118;25;20012;-50
2024/04/10 19:48:54;;;;;;;4.35;1.73;;;;;;;;;;11431992;25;20026;-51
2024/04/10 19:53:55;;;;;;;10.00;1.92;;;;;;;;;;11430469;25;20612;-51
2024/04/10 19:58:59;;;;;;;4.65;1.85;;;;;;;;;;11435892;25;20029;-51
2024/04/10 20:04:00;;;;;;;4.00;1.90;;;;;;;;;;11369796;25;20001;-52
2024/04/10 20:09:04;;;;;;;2.03;1.70;;;;;;;;;;11421965;25;20001;-50
2024/04/10 20:14:05;;;;;;;2.72;1.80;;;;;;;;;;11264514;25;20003;-59
2024/04/10 20:19:07;;;;;;;3.88;2.20;;;;;;;;;;11214407;26;20326;-55
2024/04/10 20:24:08;;;;;;;3.58;1.88;;;;;;;;;;11225597;26;20027;-52
2024/04/10 20:29:10;;;;;;;6.82;2.17;;;;;;;;;;11226307;26;19998;-62
2024/04/10 20:34:11;;;;;;;5.20;2.15;;;;;;;;;;11207215;26;20593;-61
2024/04/10 20:39:12;;;;;;;2.92;1.60;;;;;;;;;;11226620;26;20072;-62
2024/04/10 20:44:13;;;;;;;4.55;1.90;;;;;;;;;;11238160;26;20361;-62
2024/04/10 20:49:14;;;;;;;8.13;1.83;;;;;;;;;;11246417;26;20088;-59
2024/04/10 20:54:17;;;;;;;3.63;1.88;;;;;;;;;;11233567;26;20471;-57
2024/04/10 20:59:25;;;;;;;3.50;1.52;;;;;;;;;;11233954;26;20007;-62
2024/04/10 21:04:26;;;;;;;5.80;1.65;;;;;;;;;;11195890;26;20007;-61
2024/04/10 22:13:30;;;;;;;3.80;1.45;;;;;;;;;;11208111;26;19999;-52
2024/04/10 22:24:04;;;;;;;2.85;1.60;;;;;;;;;;11196151;26;20003;-51
2024/04/10 22:29:05;;;;;;;1.77;1.35;;;;;;;;;;11213261;26;20018;-51
2024/04/10 22:34:07;;;;;;;1.75;1.58;;;;;;;;;;11217299;26;20031;-55
2024/04/10 22:39:15;;;;;;;4.53;1.55;;;;;;;;;;11193673;26;19999;-51
2024/04/10 22:44:17;;;;;;;3.55;1.65;;;;;;;;;;11214623;26;20469;-51
2024/04/10 22:49:18;;;;;;;3.08;1.60;;;;;;;;;;11238559;26;20011;-49
2024/04/10 22:54:19;;;;;;;3.80;1.90;;;;;;;;;;11233000;26;20473;-52
2024/04/10 22:59:20;;;;;;;2.55;1.40;;;;;;;;;;11218755;26;20015;-52
2024/04/10 23:04:21;;;;;;;3.63;1.65;;;;;;;;;;11204174;26;20098;-52
2024/04/10 23:09:22;;;;;;;3.38;1.67;;;;;;;;;;11216066;26;20331;-52
2024/04/10 23:14:24;;;;;;;4.50;1.95;;;;;;;;;;11230749;26;19999;-52
2024/04/10 23:19:27;;;;;;;4.03;1.80;;;;;;;;;;11248113;26;20430;-51
2024/04/10 23:24:28;;;;;;;7.43;1.50;;;;;;;;;;11199472;26;20011;-57
2024/04/10 23:29:29;;;;;;;2.17;1.40;;;;;;;;;;11225865;26;20066;-52
2024/04/10 23:34:30;;;;;;;2.00;1.50;;;;;;;;;;11249895;26;20003;-52
2024/04/10 23:39:31;;;;;;;4.05;1.60;;;;;;;;;;11227506;26;20011;-52
2024/04/10 23:44:33;;;;;;;1.30;1.20;;;;;;;;;;11234491;26;20067;-52
2024/04/10 23:49:34;;;;;;;3.10;1.20;;;;;;;;;;11219159;26;20076;-52
2024/04/10 23:54:35;;;;;;;4.13;1.48;;;;;;;;;;11218608;26;20031;-52
2024/04/10 23:59:37;;;;;;;1.83;1.20;;;;;;;;;;11234036;26;20390;-52
